Cement, OK (73017)

11:53 PM CDT on September 02, 2014 (GMT -0500)
Fletcher | Change Station
CLOSE
Current Station
Personal Weather Station
Location: Fletcher, OK
Elevation: 1375 ft
Nearby Weather Stations

Elev 1375 ft 34.82 °N, 98.24 °W | Updated 10 minutes ago

Clear
Clear
78.8 °F
Feels Like 82 °F
N
4.2
Wind Variable Wind from NE

Today
High -- | Low -- °F
--% Chance of Precip.
Yesterday
High -- | Low -- °F
Precip. -- in
7:06 AM 7:57 PM
First Quarter, 58% visible
Pressure 29.87 in
Visibility 10.0 miles
Clouds Clear
Heat Index 82 °F
Dew Point 71 °F
Humidity 76%
Rainfall 0.00 in
Snow Depth Not available.
UV 0 out of 12
Pollen 10.50 out of 12
Air Quality Not available.
Flu Activity Not available.
METAR KFSI 030358Z AUTO 15007KT 10SM CLR 29/20 A2990 RMK AO2 SLP114 T02870196

More Conditions Fewer Conditions

Pressure 29.87 in
Visibility 10.0 miles
Clouds Clear
Heat Index 82 °F
Dew Point 71 °F
Humidity 76%
Rainfall 0.00 in
Snow Depth Not available.
UV 0 out of 12
Pollen 10.50 out of 12
Air Quality Not available.
Flu Activity Not available.
METAR KFSI 030358Z AUTO 15007KT 10SM CLR 29/20 A2990 RMK AO2 SLP114 T02870196

More Conditions Fewer Conditions

10-Day Weather Forecast

Almanac

Astronomy

Sep. 02, 2014 Rise Set
Actual Time 7:06 AM CDT 7:57 PM CDT
Civil Twilight 6:40 AM CDT 8:23 PM CDT
Nautical Twilight 6:09 AM CDT 8:53 PM CDT
Astronomical Twilight 5:38 AM CDT 9:25 PM CDT
Moon 2:35 PM CDT (9/2) 12:17 AM CDT (9/2)
Length of Visible Light 13h 43m
Length of Day
12h 51m
Tomorrow will be 2m 7s shorter.
First Quarter, 58% of the Moon is Illuminated
Sep 3
First Quarter
Sep 8
Full
Sep 15
Last Quarter
Sep 24
New
Oct 1
First Quarter

Yesterday's Extremes

State Highs State Lows

Community

WunderPhotos

Upload Photos

1,749,875 photos uploaded!

Nearby

Snow Depth

Station Depth Elevation
No new snow has been reported.

Earthquake Activity

City Distance Mag. Time & Date
Helena, Oklahoma 107 miles 3.2 3:05 AM CDT
2014-09-02
Medford, Oklahoma 123 miles 3.3 11:58 PM CDT
2014-09-01
Perry, Oklahoma 96 miles 3.1 6:46 AM CDT
2014-09-01
Jones, Oklahoma 66 miles 3.1 1:49 PM CDT
2014-08-31
Minimum magnitude displayed is 2.5.

Coastal Water Temperatures

Place Temperature
No Stations Reporting

Nearby Weather Stations